SBOSBO NWI / EGSH
Speedbird OnlineSpeedbird Online NWI / EGSH

Norwich International Airport
21:06 11.9°C

Location Norwich, United Kingdom
Latitude: 52.6758003235
Longitude: 1.28278005123
Web Airport Website | Wikipedia
Altitude 36 Meter / 117 Feet
Distance 151 KM / 94 Miles
from London.
Time Zone UTC +1 hours (Europe/London)
Codes IATA: NWI
ICAO: EGSH
Runways
RunwayLength (m)Surface
041266Asphalt
091841Asphalt
221266Asphalt
271841Asphalt
Radio
TypeDescriptionFrequency
APPAPP119.35
ATISATIS128.625
RDRDirector128.325
TWRTWR124.25
Live ATC
METAR EGSH 241950Z 36009KT 320V020 9999 -SHRA SCT028 13/10 Q1019 TEMPO SHRA
TAF TAF EGSH 241657Z 2418/2503 36006KT 9999 SCT045 PROB40 TEMPO 2418/2421 6000 SHRA
Weather As Of 24 Sep 2022 21:06
Description Scattered clouds
Wind 3 km/h from North-West (301°)
Cloud Cover 39%
Precipitation Rain: none, Snow: none
Sunrise 06:43
Sunset 18:50
Rotations During the last 90 days there were
9 flights from LCY
2 flights from NWI
7 flights to LCY
2 flights to NWI
1 flights to SOU
1 flights to CGN


© 2017-2022 Speedbird Online